sensor_id;sensor_type;location;lat;lon;timestamp;temperature;humidity
4548;DHT22;2286;51.570;7.090;2023-08-20T00:01:26;18.20;99.90
4548;DHT22;2286;51.570;7.090;2023-08-20T00:03:54;18.20;99.90
4548;DHT22;2286;51.570;7.090;2023-08-20T00:06:21;18.20;99.90
4548;DHT22;2286;51.570;7.090;2023-08-20T00:08:49;18.20;99.90
4548;DHT22;2286;51.570;7.090;2023-08-20T00:11:17;18.20;99.90
4548;DHT22;2286;51.570;7.090;2023-08-20T00:13:44;18.10;99.90
4548;DHT22;2286;51.570;7.090;2023-08-20T00:16:11;18.00;99.90
4548;DHT22;2286;51.570;7.090;2023-08-20T00:18:39;18.00;99.90
4548;DHT22;2286;51.570;7.090;2023-08-20T00:21:06;18.00;99.90
4548;DHT22;2286;51.570;7.090;2023-08-20T00:23:34;17.90;99.90
4548;DHT22;2286;51.570;7.090;2023-08-20T00:26:01;17.90;99.90
4548;DHT22;2286;51.570;7.090;2023-08-20T00:28:30;17.90;99.90
4548;DHT22;2286;51.570;7.090;2023-08-20T00:30:59;17.80;99.90
4548;DHT22;2286;51.570;7.090;2023-08-20T00:33:26;17.80;99.90
4548;DHT22;2286;51.570;7.090;2023-08-20T00:35:52;17.80;99.90
4548;DHT22;2286;51.570;7.090;2023-08-20T00:38:19;17.80;99.90
4548;DHT22;2286;51.570;7.090;2023-08-20T00:40:46;17.80;99.90
4548;DHT22;2286;51.570;7.090;2023-08-20T00:43:13;17.70;99.90
4548;DHT22;2286;51.570;7.090;2023-08-20T00:45:42;17.70;99.90
4548;DHT22;2286;51.570;7.090;2023-08-20T00:48:09;17.60;99.90
4548;DHT22;2286;51.570;7.090;2023-08-20T00:50:37;17.60;99.90
4548;DHT22;2286;51.570;7.090;2023-08-20T00:53:05;17.60;99.90
4548;DHT22;2286;51.570;7.090;2023-08-20T00:55:32;17.60;99.90
4548;DHT22;2286;51.570;7.090;2023-08-20T00:57:59;17.60;99.90
4548;DHT22;2286;51.570;7.090;2023-08-20T01:00:26;17.60;99.90
4548;DHT22;2286;51.570;7.090;2023-08-20T01:02:55;17.60;99.90
4548;DHT22;2286;51.570;7.090;2023-08-20T01:05:22;17.60;99.90
4548;DHT22;2286;51.570;7.090;2023-08-20T01:07:59;17.50;99.90
4548;DHT22;2286;51.570;7.090;2023-08-20T01:10:38;17.50;99.90
4548;DHT22;2286;51.570;7.090;2023-08-20T01:13:07;17.50;99.90
4548;DHT22;2286;51.570;7.090;2023-08-20T01:15:34;17.40;99.90
4548;DHT22;2286;51.570;7.090;2023-08-20T01:18:03;17.40;99.90
4548;DHT22;2286;51.570;7.090;2023-08-20T01:20:32;17.40;99.90
4548;DHT22;2286;51.570;7.090;2023-08-20T01:26:13;17.40;99.90
4548;DHT22;2286;51.570;7.090;2023-08-20T01:28:45;17.50;99.90
4548;DHT22;2286;51.570;7.090;2023-08-20T01:31:12;17.50;99.90
4548;DHT22;2286;51.570;7.090;2023-08-20T01:33:39;17.50;99.90
4548;DHT22;2286;51.570;7.090;2023-08-20T01:36:08;17.40;99.90
4548;DHT22;2286;51.570;7.090;2023-08-20T01:38:35;17.40;99.90
4548;DHT22;2286;51.570;7.090;2023-08-20T01:41:03;17.50;99.90
4548;DHT22;2286;51.570;7.090;2023-08-20T01:43:29;17.50;99.90
4548;DHT22;2286;51.570;7.090;2023-08-20T01:45:58;17.50;99.90
4548;DHT22;2286;51.570;7.090;2023-08-20T01:48:24;17.40;99.90
4548;DHT22;2286;51.570;7.090;2023-08-20T01:50:51;17.30;99.90
4548;DHT22;2286;51.570;7.090;2023-08-20T01:53:18;17.30;99.90
4548;DHT22;2286;51.570;7.090;2023-08-20T01:55:45;17.30;99.90
4548;DHT22;2286;51.570;7.090;2023-08-20T01:58:12;17.30;99.90
4548;DHT22;2286;51.570;7.090;2023-08-20T02:00:39;17.30;99.90
4548;DHT22;2286;51.570;7.090;2023-08-20T02:03:07;17.30;99.90
4548;DHT22;2286;51.570;7.090;2023-08-20T02:05:34;17.30;99.90
4548;DHT22;2286;51.570;7.090;2023-08-20T02:08:00;17.30;99.90
4548;DHT22;2286;51.570;7.090;2023-08-20T02:10:27;17.30;99.90
4548;DHT22;2286;51.570;7.090;2023-08-20T02:12:54;17.30;99.90
4548;DHT22;2286;51.570;7.090;2023-08-20T02:15:21;17.20;99.90
4548;DHT22;2286;51.570;7.090;2023-08-20T02:17:48;17.30;99.90
4548;DHT22;2286;51.570;7.090;2023-08-20T02:20:16;17.30;99.90
4548;DHT22;2286;51.570;7.090;2023-08-20T02:22:44;17.40;99.90
4548;DHT22;2286;51.570;7.090;2023-08-20T02:25:10;17.30;99.90
4548;DHT22;2286;51.570;7.090;2023-08-20T02:27:37;17.30;99.90
4548;DHT22;2286;51.570;7.090;2023-08-20T02:30:05;17.30;99.90
4548;DHT22;2286;51.570;7.090;2023-08-20T02:32:32;17.40;99.90
4548;DHT22;2286;51.570;7.090;2023-08-20T02:34:59;17.40;99.90
4548;DHT22;2286;51.570;7.090;2023-08-20T02:37:27;17.50;99.90
4548;DHT22;2286;51.570;7.090;2023-08-20T02:39:54;17.50;99.90
4548;DHT22;2286;51.570;7.090;2023-08-20T02:42:21;17.50;99.90
4548;DHT22;2286;51.570;7.090;2023-08-20T02:44:48;17.50;99.90
4548;DHT22;2286;51.570;7.090;2023-08-20T02:47:15;17.50;99.90
4548;DHT22;2286;51.570;7.090;2023-08-20T02:49:42;17.50;99.90
4548;DHT22;2286;51.570;7.090;2023-08-20T02:52:08;17.60;99.90
4548;DHT22;2286;51.570;7.090;2023-08-20T02:54:36;17.70;99.90
4548;DHT22;2286;51.570;7.090;2023-08-20T02:57:03;17.80;99.90
4548;DHT22;2286;51.570;7.090;2023-08-20T02:59:30;17.80;99.90
4548;DHT22;2286;51.570;7.090;2023-08-20T03:01:57;17.70;99.90
4548;DHT22;2286;51.570;7.090;2023-08-20T03:04:24;17.70;99.90
4548;DHT22;2286;51.570;7.090;2023-08-20T03:06:51;17.70;99.90
4548;DHT22;2286;51.570;7.090;2023-08-20T03:09:17;17.70;99.90
4548;DHT22;2286;51.570;7.090;2023-08-20T03:11:46;17.60;99.90
4548;DHT22;2286;51.570;7.090;2023-08-20T03:14:12;17.60;99.90
4548;DHT22;2286;51.570;7.090;2023-08-20T03:16:39;17.60;99.90
4548;DHT22;2286;51.570;7.090;2023-08-20T03:19:06;17.60;99.90
4548;DHT22;2286;51.570;7.090;2023-08-20T03:21:33;17.60;99.90
4548;DHT22;2286;51.570;7.090;2023-08-20T03:24:00;17.60;99.90
4548;DHT22;2286;51.570;7.090;2023-08-20T03:26:27;17.70;99.90
4548;DHT22;2286;51.570;7.090;2023-08-20T03:28:58;17.60;99.90
4548;DHT22;2286;51.570;7.090;2023-08-20T03:31:25;17.60;99.90
4548;DHT22;2286;51.570;7.090;2023-08-20T03:33:52;17.60;99.90
4548;DHT22;2286;51.570;7.090;2023-08-20T03:36:19;17.60;99.90
4548;DHT22;2286;51.570;7.090;2023-08-20T03:38:45;17.50;99.90
4548;DHT22;2286;51.570;7.090;2023-08-20T03:41:12;17.50;99.90
4548;DHT22;2286;51.570;7.090;2023-08-20T03:43:39;17.50;99.90
4548;DHT22;2286;51.570;7.090;2023-08-20T03:46:07;17.50;99.90
4548;DHT22;2286;51.570;7.090;2023-08-20T03:48:34;17.50;99.90
4548;DHT22;2286;51.570;7.090;2023-08-20T03:51:01;17.60;99.90
4548;DHT22;2286;51.570;7.090;2023-08-20T03:53:28;17.70;99.90
4548;DHT22;2286;51.570;7.090;2023-08-20T03:55:54;17.70;99.90
4548;DHT22;2286;51.570;7.090;2023-08-20T03:58:21;17.80;99.90
4548;DHT22;2286;51.570;7.090;2023-08-20T04:00:48;17.80;99.90
4548;DHT22;2286;51.570;7.090;2023-08-20T04:03:16;17.70;99.90
4548;DHT22;2286;51.570;7.090;2023-08-20T04:05:44;17.70;99.90
4548;DHT22;2286;51.570;7.090;2023-08-20T04:08:11;17.70;99.90
4548;DHT22;2286;51.570;7.090;2023-08-20T04:10:42;17.70;99.90
4548;DHT22;2286;51.570;7.090;2023-08-20T04:13:10;17.70;99.90
4548;DHT22;2286;51.570;7.090;2023-08-20T04:15:37;17.70;99.90
4548;DHT22;2286;51.570;7.090;2023-08-20T04:18:04;17.70;99.90
4548;DHT22;2286;51.570;7.090;2023-08-20T04:20:32;17.60;99.90
4548;DHT22;2286;51.570;7.090;2023-08-20T04:22:59;17.60;99.90
4548;DHT22;2286;51.570;7.090;2023-08-20T04:25:26;17.60;99.90
4548;DHT22;2286;51.570;7.090;2023-08-20T04:27:53;17.60;99.90
4548;DHT22;2286;51.570;7.090;2023-08-20T04:30:20;17.50;99.90
4548;DHT22;2286;51.570;7.090;2023-08-20T04:32:47;17.50;99.90
4548;DHT22;2286;51.570;7.090;2023-08-20T04:35:14;17.50;99.90
4548;DHT22;2286;51.570;7.090;2023-08-20T04:37:42;17.50;99.90
4548;DHT22;2286;51.570;7.090;2023-08-20T04:40:09;17.50;99.90
4548;DHT22;2286;51.570;7.090;2023-08-20T04:42:38;17.50;99.90
4548;DHT22;2286;51.570;7.090;2023-08-20T04:45:05;17.50;99.90
4548;DHT22;2286;51.570;7.090;2023-08-20T04:47:32;17.60;99.90
4548;DHT22;2286;51.570;7.090;2023-08-20T04:49:59;17.60;99.90
4548;DHT22;2286;51.570;7.090;2023-08-20T04:52:26;17.70;99.90
4548;DHT22;2286;51.570;7.090;2023-08-20T04:54:55;17.80;99.90
4548;DHT22;2286;51.570;7.090;2023-08-20T04:57:21;17.90;99.90
4548;DHT22;2286;51.570;7.090;2023-08-20T04:59:49;18.00;99.90
4548;DHT22;2286;51.570;7.090;2023-08-20T05:02:16;18.10;99.90
4548;DHT22;2286;51.570;7.090;2023-08-20T05:04:43;18.20;99.90
4548;DHT22;2286;51.570;7.090;2023-08-20T05:07:10;18.30;99.90
4548;DHT22;2286;51.570;7.090;2023-08-20T05:09:37;18.40;99.90
4548;DHT22;2286;51.570;7.090;2023-08-20T05:12:06;18.50;99.90
4548;DHT22;2286;51.570;7.090;2023-08-20T05:14:33;18.50;99.90
4548;DHT22;2286;51.570;7.090;2023-08-20T05:17:00;18.60;99.90
4548;DHT22;2286;51.570;7.090;2023-08-20T05:19:28;18.60;99.90
4548;DHT22;2286;51.570;7.090;2023-08-20T05:21:54;18.70;99.90
4548;DHT22;2286;51.570;7.090;2023-08-20T05:24:24;18.70;99.90
4548;DHT22;2286;51.570;7.090;2023-08-20T05:27:05;18.80;99.90
4548;DHT22;2286;51.570;7.090;2023-08-20T05:29:32;18.90;99.90
4548;DHT22;2286;51.570;7.090;2023-08-20T05:31:59;19.00;99.90
4548;DHT22;2286;51.570;7.090;2023-08-20T05:34:26;19.00;99.90
4548;DHT22;2286;51.570;7.090;2023-08-20T05:36:53;19.10;99.90
4548;DHT22;2286;51.570;7.090;2023-08-20T05:39:20;19.10;99.90
4548;DHT22;2286;51.570;7.090;2023-08-20T05:41:48;19.20;99.90
4548;DHT22;2286;51.570;7.090;2023-08-20T05:44:16;19.30;99.90
4548;DHT22;2286;51.570;7.090;2023-08-20T05:46:43;19.40;99.90
4548;DHT22;2286;51.570;7.090;2023-08-20T05:49:10;19.40;99.90
4548;DHT22;2286;51.570;7.090;2023-08-20T05:51:37;19.50;99.90
4548;DHT22;2286;51.570;7.090;2023-08-20T05:54:04;19.50;99.90
4548;DHT22;2286;51.570;7.090;2023-08-20T05:56:31;19.60;99.90
4548;DHT22;2286;51.570;7.090;2023-08-20T05:58:57;19.70;99.90
4548;DHT22;2286;51.570;7.090;2023-08-20T06:01:26;19.80;99.90
4548;DHT22;2286;51.570;7.090;2023-08-20T06:03:52;19.80;99.90
4548;DHT22;2286;51.570;7.090;2023-08-20T06:06:19;19.90;99.90
4548;DHT22;2286;51.570;7.090;2023-08-20T06:08:46;19.90;99.90
4548;DHT22;2286;51.570;7.090;2023-08-20T06:11:13;20.00;99.90
4548;DHT22;2286;51.570;7.090;2023-08-20T06:13:40;20.00;99.90
4548;DHT22;2286;51.570;7.090;2023-08-20T06:16:07;20.10;99.90
4548;DHT22;2286;51.570;7.090;2023-08-20T06:18:35;20.10;99.90
4548;DHT22;2286;51.570;7.090;2023-08-20T06:21:02;20.20;99.90
4548;DHT22;2286;51.570;7.090;2023-08-20T06:23:29;20.30;99.90
4548;DHT22;2286;51.570;7.090;2023-08-20T06:25:56;20.30;99.90
4548;DHT22;2286;51.570;7.090;2023-08-20T06:28:23;20.40;99.90
4548;DHT22;2286;51.570;7.090;2023-08-20T06:30:50;20.40;99.90
4548;DHT22;2286;51.570;7.090;2023-08-20T06:33:17;20.40;99.90
4548;DHT22;2286;51.570;7.090;2023-08-20T06:35:45;20.60;99.90
4548;DHT22;2286;51.570;7.090;2023-08-20T06:38:12;20.70;99.90
4548;DHT22;2286;51.570;7.090;2023-08-20T06:40:40;20.80;99.90
4548;DHT22;2286;51.570;7.090;2023-08-20T06:43:06;20.90;99.90
4548;DHT22;2286;51.570;7.090;2023-08-20T06:45:33;20.90;99.90
4548;DHT22;2286;51.570;7.090;2023-08-20T06:48:00;21.00;99.90
4548;DHT22;2286;51.570;7.090;2023-08-20T06:50:27;21.00;99.90
4548;DHT22;2286;51.570;7.090;2023-08-20T06:52:55;21.10;99.90
4548;DHT22;2286;51.570;7.090;2023-08-20T06:55:22;21.10;99.90
4548;DHT22;2286;51.570;7.090;2023-08-20T06:57:49;21.20;99.90
4548;DHT22;2286;51.570;7.090;2023-08-20T07:00:16;21.40;99.90
4548;DHT22;2286;51.570;7.090;2023-08-20T07:02:44;21.50;99.90
4548;DHT22;2286;51.570;7.090;2023-08-20T07:05:11;21.60;99.90
4548;DHT22;2286;51.570;7.090;2023-08-20T07:07:40;21.60;99.90
4548;DHT22;2286;51.570;7.090;2023-08-20T07:10:08;21.60;99.90
4548;DHT22;2286;51.570;7.090;2023-08-20T07:12:36;21.70;99.90
4548;DHT22;2286;51.570;7.090;2023-08-20T07:15:03;21.90;99.90
4548;DHT22;2286;51.570;7.090;2023-08-20T07:17:30;21.90;99.90
4548;DHT22;2286;51.570;7.090;2023-08-20T07:19:57;22.00;99.90
4548;DHT22;2286;51.570;7.090;2023-08-20T07:22:24;22.10;99.90
4548;DHT22;2286;51.570;7.090;2023-08-20T07:24:50;22.20;26.80
4548;DHT22;2286;51.570;7.090;2023-08-20T07:27:19;22.30;1.00
4548;DHT22;2286;51.570;7.090;2023-08-20T07:29:45;22.40;1.00
4548;DHT22;2286;51.570;7.090;2023-08-20T07:32:12;22.60;1.00
4548;DHT22;2286;51.570;7.090;2023-08-20T07:34:39;22.70;1.00
4548;DHT22;2286;51.570;7.090;2023-08-20T07:37:06;22.80;99.90
4548;DHT22;2286;51.570;7.090;2023-08-20T07:39:33;22.90;99.90
4548;DHT22;2286;51.570;7.090;2023-08-20T07:42:00;23.00;99.90
4548;DHT22;2286;51.570;7.090;2023-08-20T07:44:28;23.30;99.90
4548;DHT22;2286;51.570;7.090;2023-08-20T07:46:55;23.50;1.00
4548;DHT22;2286;51.570;7.090;2023-08-20T07:49:22;23.60;45.50
4548;DHT22;2286;51.570;7.090;2023-08-20T07:51:48;23.70;36.60
4548;DHT22;2286;51.570;7.090;2023-08-20T07:54:17;23.50;92.10
4548;DHT22;2286;51.570;7.090;2023-08-20T07:56:44;23.50;35.10
4548;DHT22;2286;51.570;7.090;2023-08-20T07:59:11;23.60;1.00
4548;DHT22;2286;51.570;7.090;2023-08-20T08:01:39;23.60;99.90
4548;DHT22;2286;51.570;7.090;2023-08-20T08:04:06;23.50;99.90
4548;DHT22;2286;51.570;7.090;2023-08-20T08:06:33;23.50;1.00
4548;DHT22;2286;51.570;7.090;2023-08-20T08:09:17;23.40;1.00
4548;DHT22;2286;51.570;7.090;2023-08-20T08:11:45;23.40;43.70
4548;DHT22;2286;51.570;7.090;2023-08-20T08:14:12;23.50;99.90
4548;DHT22;2286;51.570;7.090;2023-08-20T08:16:40;23.50;7.20
4548;DHT22;2286;51.570;7.090;2023-08-20T08:19:07;23.40;99.90
4548;DHT22;2286;51.570;7.090;2023-08-20T08:21:34;23.40;99.90
4548;DHT22;2286;51.570;7.090;2023-08-20T08:24:00;23.40;99.90
4548;DHT22;2286;51.570;7.090;2023-08-20T08:26:28;23.50;1.00
4548;DHT22;2286;51.570;7.090;2023-08-20T08:28:55;23.60;99.90
4548;DHT22;2286;51.570;7.090;2023-08-20T08:31:21;23.70;33.40
4548;DHT22;2286;51.570;7.090;2023-08-20T08:33:50;23.90;1.00
4548;DHT22;2286;51.570;7.090;2023-08-20T08:36:16;23.90;1.00
4548;DHT22;2286;51.570;7.090;2023-08-20T08:38:44;23.90;1.00
4548;DHT22;2286;51.570;7.090;2023-08-20T08:41:12;24.00;1.00
4548;DHT22;2286;51.570;7.090;2023-08-20T08:43:40;24.10;99.90
4548;DHT22;2286;51.570;7.090;2023-08-20T08:46:07;24.20;1.00
4548;DHT22;2286;51.570;7.090;2023-08-20T08:48:36;24.30;99.90
4548;DHT22;2286;51.570;7.090;2023-08-20T08:51:05;24.50;99.90
4548;DHT22;2286;51.570;7.090;2023-08-20T08:53:33;24.60;99.90
4548;DHT22;2286;51.570;7.090;2023-08-20T08:56:00;24.70;1.00
4548;DHT22;2286;51.570;7.090;2023-08-20T08:58:28;24.90;99.90
4548;DHT22;2286;51.570;7.090;2023-08-20T09:00:55;24.90;1.00
4548;DHT22;2286;51.570;7.090;2023-08-20T09:03:22;25.00;1.00
4548;DHT22;2286;51.570;7.090;2023-08-20T09:05:53;25.20;99.90
4548;DHT22;2286;51.570;7.090;2023-08-20T09:08:22;25.40;99.90
4548;DHT22;2286;51.570;7.090;2023-08-20T09:10:50;25.60;99.90
4548;DHT22;2286;51.570;7.090;2023-08-20T09:13:18;25.90;1.00
4548;DHT22;2286;51.570;7.090;2023-08-20T09:15:50;26.10;21.30
4548;DHT22;2286;51.570;7.090;2023-08-20T09:18:17;26.30;1.00
4548;DHT22;2286;51.570;7.090;2023-08-20T09:20:44;26.60;99.90
4548;DHT22;2286;51.570;7.090;2023-08-20T09:23:11;26.70;99.90
4548;DHT22;2286;51.570;7.090;2023-08-20T09:25:41;26.70;99.90
4548;DHT22;2286;51.570;7.090;2023-08-20T09:28:09;26.80;1.00
4548;DHT22;2286;51.570;7.090;2023-08-20T09:30:36;26.80;1.00
4548;DHT22;2286;51.570;7.090;2023-08-20T09:33:07;26.90;1.00
4548;DHT22;2286;51.570;7.090;2023-08-20T09:35:34;26.60;1.00
4548;DHT22;2286;51.570;7.090;2023-08-20T09:38:02;26.70;1.00
4548;DHT22;2286;51.570;7.090;2023-08-20T09:40:30;26.60;1.00
4548;DHT22;2286;51.570;7.090;2023-08-20T09:43:00;26.90;99.90
4548;DHT22;2286;51.570;7.090;2023-08-20T09:45:28;27.30;99.90
4548;DHT22;2286;51.570;7.090;2023-08-20T09:47:56;27.50;99.90
4548;DHT22;2286;51.570;7.090;2023-08-20T09:50:26;27.60;99.90
4548;DHT22;2286;51.570;7.090;2023-08-20T09:52:58;27.90;99.90
4548;DHT22;2286;51.570;7.090;2023-08-20T09:55:30;27.90;99.90
4548;DHT22;2286;51.570;7.090;2023-08-20T09:58:01;28.70;99.90
4548;DHT22;2286;51.570;7.090;2023-08-20T10:00:28;29.10;99.90
4548;DHT22;2286;51.570;7.090;2023-08-20T10:02:56;29.10;99.90
4548;DHT22;2286;51.570;7.090;2023-08-20T10:05:25;28.00;99.90
4548;DHT22;2286;51.570;7.090;2023-08-20T10:07:52;28.40;99.90
4548;DHT22;2286;51.570;7.090;2023-08-20T10:10:19;28.90;99.90
4548;DHT22;2286;51.570;7.090;2023-08-20T10:12:46;28.80;99.90
4548;DHT22;2286;51.570;7.090;2023-08-20T10:15:15;28.50;99.90
4548;DHT22;2286;51.570;7.090;2023-08-20T10:17:44;28.30;99.90
4548;DHT22;2286;51.570;7.090;2023-08-20T10:20:13;28.20;99.90
4548;DHT22;2286;51.570;7.090;2023-08-20T10:22:41;28.10;99.90
4548;DHT22;2286;51.570;7.090;2023-08-20T10:25:09;27.70;99.90
4548;DHT22;2286;51.570;7.090;2023-08-20T10:27:39;27.60;99.90
4548;DHT22;2286;51.570;7.090;2023-08-20T10:30:10;28.10;99.90
4548;DHT22;2286;51.570;7.090;2023-08-20T10:32:47;28.90;99.90
4548;DHT22;2286;51.570;7.090;2023-08-20T10:35:15;29.50;99.90
4548;DHT22;2286;51.570;7.090;2023-08-20T10:38:06;30.00;99.90
4548;DHT22;2286;51.570;7.090;2023-08-20T10:40:53;30.90;99.90
4548;DHT22;2286;51.570;7.090;2023-08-20T10:43:31;31.70;99.90
4548;DHT22;2286;51.570;7.090;2023-08-20T10:46:13;32.00;99.90
4548;DHT22;2286;51.570;7.090;2023-08-20T10:48:43;31.40;99.90
4548;DHT22;2286;51.570;7.090;2023-08-20T10:51:13;31.00;99.90
4548;DHT22;2286;51.570;7.090;2023-08-20T10:53:41;30.70;99.90
4548;DHT22;2286;51.570;7.090;2023-08-20T10:56:13;30.30;99.90
4548;DHT22;2286;51.570;7.090;2023-08-20T10:58:45;29.90;99.90
4548;DHT22;2286;51.570;7.090;2023-08-20T11:01:17;29.80;99.90
4548;DHT22;2286;51.570;7.090;2023-08-20T11:03:47;30.30;99.90
4548;DHT22;2286;51.570;7.090;2023-08-20T11:06:15;31.60;99.90
4548;DHT22;2286;51.570;7.090;2023-08-20T11:08:43;31.90;99.90
4548;DHT22;2286;51.570;7.090;2023-08-20T11:11:10;32.80;99.90
4548;DHT22;2286;51.570;7.090;2023-08-20T11:13:38;33.70;99.90
4548;DHT22;2286;51.570;7.090;2023-08-20T11:16:06;33.60;99.90
4548;DHT22;2286;51.570;7.090;2023-08-20T11:18:34;33.00;99.90
4548;DHT22;2286;51.570;7.090;2023-08-20T11:21:03;32.10;99.90
4548;DHT22;2286;51.570;7.090;2023-08-20T11:23:31;31.10;99.90
4548;DHT22;2286;51.570;7.090;2023-08-20T11:25:58;30.40;99.90
4548;DHT22;2286;51.570;7.090;2023-08-20T11:28:28;29.80;99.90
4548;DHT22;2286;51.570;7.090;2023-08-20T11:30:55;29.70;99.90
4548;DHT22;2286;51.570;7.090;2023-08-20T11:33:23;29.40;99.90
4548;DHT22;2286;51.570;7.090;2023-08-20T11:35:52;30.50;99.90
4548;DHT22;2286;51.570;7.090;2023-08-20T11:38:22;31.10;99.90
4548;DHT22;2286;51.570;7.090;2023-08-20T11:40:49;30.50;99.90
4548;DHT22;2286;51.570;7.090;2023-08-20T11:43:17;30.80;99.90
4548;DHT22;2286;51.570;7.090;2023-08-20T11:45:45;32.30;99.90
4548;DHT22;2286;51.570;7.090;2023-08-20T11:48:12;33.30;99.90
4548;DHT22;2286;51.570;7.090;2023-08-20T11:50:40;34.30;99.90
4548;DHT22;2286;51.570;7.090;2023-08-20T11:53:08;34.50;99.90
4548;DHT22;2286;51.570;7.090;2023-08-20T11:55:38;35.30;99.90
4548;DHT22;2286;51.570;7.090;2023-08-20T11:58:05;35.60;99.90
4548;DHT22;2286;51.570;7.090;2023-08-20T12:00:32;35.80;99.90
4548;DHT22;2286;51.570;7.090;2023-08-20T12:02:59;35.60;99.90
4548;DHT22;2286;51.570;7.090;2023-08-20T12:05:29;35.80;99.90
4548;DHT22;2286;51.570;7.090;2023-08-20T12:07:57;35.60;99.90
4548;DHT22;2286;51.570;7.090;2023-08-20T12:10:25;36.50;99.90
4548;DHT22;2286;51.570;7.090;2023-08-20T12:12:54;37.30;99.90
4548;DHT22;2286;51.570;7.090;2023-08-20T12:15:22;37.30;99.90
4548;DHT22;2286;51.570;7.090;2023-08-20T12:17:59;37.50;99.90
4548;DHT22;2286;51.570;7.090;2023-08-20T12:20:27;36.80;99.90
4548;DHT22;2286;51.570;7.090;2023-08-20T12:22:56;36.10;99.90
4548;DHT22;2286;51.570;7.090;2023-08-20T12:25:23;36.00;99.90
4548;DHT22;2286;51.570;7.090;2023-08-20T12:27:50;36.10;99.90
4548;DHT22;2286;51.570;7.090;2023-08-20T12:30:18;35.80;99.90
4548;DHT22;2286;51.570;7.090;2023-08-20T12:32:46;35.20;99.90
4548;DHT22;2286;51.570;7.090;2023-08-20T12:35:12;36.70;99.90
4548;DHT22;2286;51.570;7.090;2023-08-20T12:37:39;37.50;99.90
4548;DHT22;2286;51.570;7.090;2023-08-20T12:40:07;38.30;99.90
4548;DHT22;2286;51.570;7.090;2023-08-20T12:42:36;39.10;99.90
4548;DHT22;2286;51.570;7.090;2023-08-20T12:45:04;40.00;99.90
4548;DHT22;2286;51.570;7.090;2023-08-20T12:47:33;40.70;99.90
4548;DHT22;2286;51.570;7.090;2023-08-20T12:50:00;41.60;99.90
4548;DHT22;2286;51.570;7.090;2023-08-20T12:52:26;41.40;99.90
4548;DHT22;2286;51.570;7.090;2023-08-20T12:54:53;41.20;99.90
4548;DHT22;2286;51.570;7.090;2023-08-20T12:57:20;39.60;99.90
4548;DHT22;2286;51.570;7.090;2023-08-20T12:59:47;38.20;99.90
4548;DHT22;2286;51.570;7.090;2023-08-20T13:02:14;37.80;99.90
4548;DHT22;2286;51.570;7.090;2023-08-20T13:04:43;38.80;99.90
4548;DHT22;2286;51.570;7.090;2023-08-20T13:07:10;40.60;99.90
4548;DHT22;2286;51.570;7.090;2023-08-20T13:09:37;42.10;99.90
4548;DHT22;2286;51.570;7.090;2023-08-20T13:12:06;41.20;99.90
4548;DHT22;2286;51.570;7.090;2023-08-20T13:14:36;41.60;99.90
4548;DHT22;2286;51.570;7.090;2023-08-20T13:17:03;41.90;99.90
4548;DHT22;2286;51.570;7.090;2023-08-20T13:19:30;42.40;99.90
4548;DHT22;2286;51.570;7.090;2023-08-20T13:21:58;42.80;99.90
4548;DHT22;2286;51.570;7.090;2023-08-20T13:24:26;42.60;99.90
4548;DHT22;2286;51.570;7.090;2023-08-20T13:26:52;41.20;99.90
4548;DHT22;2286;51.570;7.090;2023-08-20T13:29:19;41.30;99.90
4548;DHT22;2286;51.570;7.090;2023-08-20T13:31:46;41.90;99.90
4548;DHT22;2286;51.570;7.090;2023-08-20T13:34:13;42.50;99.90
4548;DHT22;2286;51.570;7.090;2023-08-20T13:36:40;42.80;99.90
4548;DHT22;2286;51.570;7.090;2023-08-20T13:39:08;42.50;99.90
4548;DHT22;2286;51.570;7.090;2023-08-20T13:41:39;42.20;99.90
4548;DHT22;2286;51.570;7.090;2023-08-20T13:44:06;41.90;99.90
4548;DHT22;2286;51.570;7.090;2023-08-20T13:46:33;42.00;99.90
4548;DHT22;2286;51.570;7.090;2023-08-20T13:49:00;42.60;99.90
4548;DHT22;2286;51.570;7.090;2023-08-20T13:51:28;42.00;99.90
4548;DHT22;2286;51.570;7.090;2023-08-20T13:53:55;42.00;99.90
4548;DHT22;2286;51.570;7.090;2023-08-20T13:56:24;42.10;99.90
4548;DHT22;2286;51.570;7.090;2023-08-20T13:58:52;42.00;99.90
4548;DHT22;2286;51.570;7.090;2023-08-20T14:01:19;42.90;99.90
4548;DHT22;2286;51.570;7.090;2023-08-20T14:03:46;42.30;99.90
4548;DHT22;2286;51.570;7.090;2023-08-20T14:06:13;42.30;99.90
4548;DHT22;2286;51.570;7.090;2023-08-20T14:08:40;42.20;99.90
4548;DHT22;2286;51.570;7.090;2023-08-20T14:11:07;42.00;99.90
4548;DHT22;2286;51.570;7.090;2023-08-20T14:13:35;42.20;99.90
4548;DHT22;2286;51.570;7.090;2023-08-20T14:16:02;41.50;99.90
4548;DHT22;2286;51.570;7.090;2023-08-20T14:18:29;41.70;99.90
4548;DHT22;2286;51.570;7.090;2023-08-20T14:20:55;42.10;99.90
4548;DHT22;2286;51.570;7.090;2023-08-20T14:23:23;42.50;99.90
4548;DHT22;2286;51.570;7.090;2023-08-20T14:25:50;43.00;99.90
4548;DHT22;2286;51.570;7.090;2023-08-20T14:28:19;42.80;99.90
4548;DHT22;2286;51.570;7.090;2023-08-20T14:30:48;43.40;99.90
4548;DHT22;2286;51.570;7.090;2023-08-20T14:33:15;43.40;99.90
4548;DHT22;2286;51.570;7.090;2023-08-20T14:35:42;43.80;99.90
4548;DHT22;2286;51.570;7.090;2023-08-20T14:38:09;43.70;99.90
4548;DHT22;2286;51.570;7.090;2023-08-20T14:40:37;44.60;99.90
4548;DHT22;2286;51.570;7.090;2023-08-20T14:43:05;44.50;99.90
4548;DHT22;2286;51.570;7.090;2023-08-20T14:45:32;45.30;99.90
4548;DHT22;2286;51.570;7.090;2023-08-20T14:48:00;45.90;99.90
4548;DHT22;2286;51.570;7.090;2023-08-20T14:50:28;45.80;99.90
4548;DHT22;2286;51.570;7.090;2023-08-20T14:52:55;46.30;99.90
4548;DHT22;2286;51.570;7.090;2023-08-20T14:55:22;46.40;99.90
4548;DHT22;2286;51.570;7.090;2023-08-20T14:57:48;46.40;99.90
4548;DHT22;2286;51.570;7.090;2023-08-20T15:00:15;45.90;99.90
4548;DHT22;2286;51.570;7.090;2023-08-20T15:02:43;45.80;99.90
4548;DHT22;2286;51.570;7.090;2023-08-20T15:05:12;45.50;99.90
4548;DHT22;2286;51.570;7.090;2023-08-20T15:07:39;46.30;99.90
4548;DHT22;2286;51.570;7.090;2023-08-20T15:10:07;46.10;99.90
4548;DHT22;2286;51.570;7.090;2023-08-20T15:12:35;45.80;99.90
4548;DHT22;2286;51.570;7.090;2023-08-20T15:15:02;45.80;99.90
4548;DHT22;2286;51.570;7.090;2023-08-20T15:17:29;45.60;99.90
4548;DHT22;2286;51.570;7.090;2023-08-20T15:19:57;44.90;99.90
4548;DHT22;2286;51.570;7.090;2023-08-20T15:22:25;45.60;99.90
4548;DHT22;2286;51.570;7.090;2023-08-20T15:24:52;45.50;99.90
4548;DHT22;2286;51.570;7.090;2023-08-20T15:27:18;46.00;99.90
4548;DHT22;2286;51.570;7.090;2023-08-20T15:29:45;46.40;99.90
4548;DHT22;2286;51.570;7.090;2023-08-20T15:32:12;45.50;99.90
4548;DHT22;2286;51.570;7.090;2023-08-20T15:34:39;45.20;99.90
4548;DHT22;2286;51.570;7.090;2023-08-20T15:37:06;44.80;99.90
4548;DHT22;2286;51.570;7.090;2023-08-20T15:39:34;44.60;99.90
4548;DHT22;2286;51.570;7.090;2023-08-20T15:42:01;43.40;99.90
4548;DHT22;2286;51.570;7.090;2023-08-20T15:44:28;41.30;99.90
4548;DHT22;2286;51.570;7.090;2023-08-20T15:46:55;41.20;99.90
4548;DHT22;2286;51.570;7.090;2023-08-20T15:49:22;42.60;99.90
4548;DHT22;2286;51.570;7.090;2023-08-20T15:51:49;43.00;99.90
4548;DHT22;2286;51.570;7.090;2023-08-20T15:54:16;43.50;99.90
4548;DHT22;2286;51.570;7.090;2023-08-20T15:56:46;43.70;99.90
4548;DHT22;2286;51.570;7.090;2023-08-20T15:59:12;44.00;99.90
4548;DHT22;2286;51.570;7.090;2023-08-20T16:01:39;44.30;99.90
4548;DHT22;2286;51.570;7.090;2023-08-20T16:04:06;43.10;99.90
4548;DHT22;2286;51.570;7.090;2023-08-20T16:06:34;42.60;99.90
4548;DHT22;2286;51.570;7.090;2023-08-20T16:09:01;42.90;99.90